KGYI

North Texas Regional / Perrin Field Airport

Sherman/Denison, Texas, USA
METAR KGYI 110155Z AUTO 00000KT 10SM CLR 05/M01 A3035 RMK AO2 T00461011 TSNO
Observed Flight Rules
Dec-11 @ 01:55 UTC (29 minutes ago) Visual Flight Rules
Visibility Clouds
10 miles
  • Clear skies
Temperatures Readings
Current 5°C / 41°F
Dewpoint -1°C / 30°F
Humidity 66%
Altimeter 30.35" Hg
Pressure 1028 hPa
Elevation 228
METAR KGYI 110155Z AUTO 00000KT 10SM CLR 05/M01 A3035 RMK AO2 T00461011 TSNO
Observed Flight Rules
Dec-11 @ 01:55 UTC
(29 minutes ago)
VFR
Clouds
  • Clear skies
Temperature Dewpoint
5°C / 41°F -1°C / 30°F
Humidity Altimeter Pressure
66% 30.35" Hg 1028 hPa